Time;durP1;ratioP1;P1;durP2;ratioP2;P2;SDS_P1;SDS_P2;PMS_P1;PMS_P2;Temp;Humidity;BMP_temperature;BMP_pressure;BME280_temperature;BME280_humidity;BME280_pressure;Samples;Min_cycle;Max_cycle;Signal;HPM_P1;HPM_P2
2023/09/11 00:00:43;;;;;;;14.80;6.28;;;23.60;99.90;;;;;;5018691;28;20048;-72
2023/09/11 00:03:08;;;;;;;11.68;6.13;;;23.50;99.90;;;;;;5017586;28;20034;-70
2023/09/11 00:05:34;;;;;;;11.48;5.65;;;23.50;99.90;;;;;;5018286;28;20084;-71
2023/09/11 00:07:59;;;;;;;15.10;5.15;;;23.50;99.90;;;;;;5014747;28;20033;-70
2023/09/11 00:10:25;;;;;;;11.38;5.30;;;23.50;99.90;;;;;;5020050;28;20033;-72
2023/09/11 00:12:50;;;;;;;14.40;6.43;;;23.40;99.90;;;;;;5012502;28;20029;-71
2023/09/11 00:15:16;;;;;;;11.40;5.28;;;23.40;99.90;;;;;;5016794;28;20100;-71
2023/09/11 00:17:43;;;;;;;15.20;6.05;;;23.40;99.90;;;;;;5018442;28;20040;-70
2023/09/11 00:20:09;;;;;;;9.30;5.60;;;23.30;99.90;;;;;;5015901;28;20042;-71
2023/09/11 00:22:35;;;;;;;12.90;5.50;;;23.30;99.90;;;;;;5016934;28;20124;-72
2023/09/11 00:25:01;;;;;;;11.07;5.10;;;23.30;99.90;;;;;;5015890;28;20482;-71
2023/09/11 00:27:26;;;;;;;11.48;5.90;;;23.20;99.90;;;;;;5019610;28;20768;-72
2023/09/11 00:29:52;;;;;;;14.00;6.18;;;23.20;99.90;;;;;;5013114;28;20038;-71
2023/09/11 00:32:18;;;;;;;11.18;6.32;;;23.20;99.90;;;;;;5018800;28;20060;-70
2023/09/11 00:34:43;;;;;;;11.65;5.82;;;23.10;99.90;;;;;;5019313;28;20137;-71
2023/09/11 00:37:09;;;;;;;13.68;6.10;;;23.10;99.90;;;;;;5013178;28;20113;-70
2023/09/11 00:39:34;;;;;;;12.65;5.55;;;23.10;99.90;;;;;;5017978;28;20041;-71
2023/09/11 00:42:00;;;;;;;8.98;5.20;;;23.00;99.90;;;;;;5013234;28;20096;-70
2023/09/11 00:44:25;;;;;;;18.00;6.60;;;23.00;99.90;;;;;;5017908;28;20052;-70
2023/09/11 00:46:51;;;;;;;10.63;5.60;;;23.00;99.90;;;;;;5016978;28;20057;-71
2023/09/11 00:49:20;;;;;;;11.45;5.90;;;22.90;99.90;;;;;;5013446;28;20030;-71
2023/09/11 00:51:46;;;;;;;12.77;6.05;;;22.90;99.90;;;;;;5013974;28;20035;-70
2023/09/11 00:54:14;;;;;;;12.52;6.10;;;22.80;99.90;;;;;;5018118;28;20034;-70
2023/09/11 00:56:39;;;;;;;13.60;6.45;;;22.70;99.90;;;;;;5018231;28;20033;-70
2023/09/11 00:59:06;;;;;;;10.05;5.93;;;22.70;99.90;;;;;;5016526;28;20103;-70
2023/09/11 01:01:31;;;;;;;12.65;6.70;;;22.70;99.90;;;;;;5014976;28;20064;-70
2023/09/11 01:03:58;;;;;;;12.75;6.20;;;22.70;99.90;;;;;;5020063;28;20121;-71
2023/09/11 01:06:23;;;;;;;14.25;6.40;;;22.60;99.90;;;;;;5012859;28;20061;-72
2023/09/11 01:08:51;;;;;;;13.23;6.22;;;22.60;99.90;;;;;;5021205;28;20065;-69
2023/09/11 01:11:18;;;;;;;11.85;6.63;;;22.60;99.90;;;;;;5013456;28;20034;-72
2023/09/11 01:13:44;;;;;;;15.93;6.40;;;22.60;99.90;;;;;;5016444;28;20041;-72
2023/09/11 01:16:34;;;;;;;14.68;6.65;;;22.50;99.90;;;;;;5018998;28;20052;-72
2023/09/11 01:19:26;;;;;;;12.02;6.45;;;22.50;99.90;;;;;;5014454;28;20060;-71
2023/09/11 01:21:51;;;;;;;15.93;7.30;;;22.40;99.90;;;;;;4988965;28;20062;-71
2023/09/11 01:24:42;;;;;;;13.65;7.15;;;22.40;99.90;;;;;;5010898;28;20042;-71
2023/09/11 01:27:13;;;;;;;16.23;7.60;;;22.40;99.90;;;;;;5012913;28;20041;-70
2023/09/11 01:29:41;;;;;;;10.77;5.78;;;22.30;99.90;;;;;;5020269;28;20493;-70
2023/09/11 01:32:08;;;;;;;16.98;7.15;;;22.30;99.90;;;;;;5018022;28;20037;-71
2023/09/11 01:34:34;;;;;;;12.43;6.47;;;22.20;99.90;;;;;;5013139;28;20034;-71
2023/09/11 01:36:59;;;;;;;13.00;7.40;;;22.20;99.90;;;;;;5018447;28;20500;-71
2023/09/11 01:39:25;;;;;;;17.20;7.93;;;22.20;99.90;;;;;;5019023;28;20037;-72
2023/09/11 01:41:57;;;;;;;13.65;7.13;;;22.20;99.90;;;;;;5015938;28;20030;-71
2023/09/11 01:44:54;;;;;;;11.77;6.75;;;22.20;99.90;;;;;;5017838;28;20061;-71
2023/09/11 01:47:23;;;;;;;15.13;7.20;;;22.20;99.90;;;;;;5003969;28;20488;-70
2023/09/11 01:49:49;;;;;;;15.55;7.57;;;22.30;99.90;;;;;;5014375;28;20486;-71
2023/09/11 01:52:16;;;;;;;18.02;8.60;;;22.30;99.90;;;;;;5013390;28;20060;-72
2023/09/11 01:54:42;;;;;;;14.65;7.25;;;22.30;99.90;;;;;;5014751;28;20034;-71
2023/09/11 01:57:09;;;;;;;17.65;8.27;;;22.30;99.90;;;;;;5018427;28;20036;-70
2023/09/11 01:59:35;;;;;;;15.57;7.45;;;22.30;99.90;;;;;;5016615;28;20511;-71
2023/09/11 02:02:00;;;;;;;17.33;7.93;;;22.30;99.90;;;;;;5015600;28;20037;-72
2023/09/11 02:04:26;;;;;;;14.88;8.50;;;22.30;99.90;;;;;;5018264;28;20029;-71
2023/09/11 02:06:51;;;;;;;13.65;8.57;;;22.30;99.90;;;;;;5018856;28;20034;-70
2023/09/11 02:09:31;;;;;;;15.55;8.52;;;22.20;99.90;;;;;;5056870;28;20407;-71
2023/09/11 02:11:56;;;;;;;19.05;7.80;;;22.30;99.90;;;;;;5056559;28;20025;-70
2023/09/11 02:14:22;;;;;;;14.50;7.40;;;22.20;99.90;;;;;;5051178;28;20444;-72
2023/09/11 02:16:47;;;;;;;19.75;7.88;;;22.30;99.90;;;;;;5035448;28;20033;-73
2023/09/11 02:19:13;;;;;;;14.98;7.55;;;22.20;99.90;;;;;;5032784;28;20030;-70
2023/09/11 02:21:38;;;;;;;15.00;7.25;;;22.20;99.90;;;;;;5034841;28;20033;-70
2023/09/11 02:24:04;;;;;;;14.10;7.00;;;22.20;99.90;;;;;;5033087;28;20029;-71
2023/09/11 02:26:30;;;;;;;12.73;7.68;;;22.20;99.90;;;;;;5020714;28;20038;-74
2023/09/11 02:28:59;;;;;;;18.08;8.65;;;22.10;99.90;;;;;;5014612;28;20034;-69
2023/09/11 02:31:25;;;;;;;16.43;8.93;;;22.10;99.90;;;;;;5017666;28;20124;-72
2023/09/11 02:33:50;;;;;;;16.33;8.00;;;22.10;99.90;;;;;;5031442;28;20126;-70
2023/09/11 02:36:16;;;;;;;20.65;8.30;;;22.10;99.90;;;;;;5043675;28;20029;-71
2023/09/11 02:38:41;;;;;;;16.60;8.25;;;22.00;99.90;;;;;;5037866;28;20037;-72
2023/09/11 02:41:07;;;;;;;17.52;8.48;;;22.00;99.90;;;;;;5023253;28;20512;-71
2023/09/11 02:43:33;;;;;;;14.60;8.00;;;22.00;99.90;;;;;;5010461;28;20038;-70
2023/09/11 02:45:58;;;;;;;15.38;8.52;;;22.00;99.90;;;;;;5042831;28;20037;-70
2023/09/11 02:48:24;;;;;;;14.93;8.88;;;22.00;99.90;;;;;;5017733;28;20448;-72
2023/09/11 02:50:49;;;;;;;22.05;8.27;;;22.00;99.90;;;;;;5001651;28;20200;-70
2023/09/11 02:53:16;;;;;;;19.38;8.25;;;22.00;99.90;;;;;;5031530;28;20489;-71
2023/09/11 02:55:42;;;;;;;16.02;8.38;;;22.00;99.90;;;;;;5023188;28;20084;-71
2023/09/11 02:58:08;;;;;;;17.75;7.97;;;22.00;99.90;;;;;;5013688;28;20458;-71
2023/09/11 03:00:34;;;;;;;16.30;9.18;;;21.90;99.90;;;;;;5012237;28;20120;-71
2023/09/11 03:03:01;;;;;;;16.95;8.02;;;21.90;99.90;;;;;;5014431;28;20365;-71
2023/09/11 03:05:27;;;;;;;13.73;7.68;;;21.90;99.90;;;;;;5019611;28;20060;-71
2023/09/11 03:07:53;;;;;;;23.90;9.95;;;21.90;99.90;;;;;;5031498;28;20120;-71
2023/09/11 03:10:18;;;;;;;18.10;10.30;;;21.90;99.90;;;;;;5041022;28;20120;-71
2023/09/11 03:12:44;;;;;;;19.08;9.15;;;21.90;99.90;;;;;;5034151;28;20041;-70
2023/09/11 03:15:10;;;;;;;16.63;8.63;;;21.90;99.90;;;;;;5038849;28;20049;-71
2023/09/11 03:17:35;;;;;;;16.77;9.35;;;21.90;99.90;;;;;;5010395;28;20041;-70
2023/09/11 03:20:01;;;;;;;17.52;9.30;;;21.80;99.90;;;;;;5041044;28;20045;-70
2023/09/11 03:22:28;;;;;;;20.27;8.63;;;21.80;99.90;;;;;;4999447;28;20432;-70
2023/09/11 03:24:54;;;;;;;13.80;8.50;;;21.80;99.90;;;;;;5024178;28;20512;-70
2023/09/11 03:27:19;;;;;;;14.80;8.00;;;21.80;99.90;;;;;;5024628;28;20133;-71
2023/09/11 03:29:45;;;;;;;15.50;8.25;;;21.80;99.90;;;;;;5017140;28;20096;-70
2023/09/11 03:32:10;;;;;;;16.20;8.18;;;21.80;99.90;;;;;;5019616;28;20661;-71
2023/09/11 03:34:36;;;;;;;14.50;7.55;;;21.70;99.90;;;;;;5002475;28;20400;-70
2023/09/11 03:37:01;;;;;;;14.65;8.70;;;21.60;99.90;;;;;;5027415;28;20152;-70
2023/09/11 03:39:27;;;;;;;21.27;10.40;;;21.60;99.90;;;;;;5028947;28;20030;-71
2023/09/11 03:41:53;;;;;;;23.83;8.95;;;21.50;99.90;;;;;;5026519;28;20037;-70
2023/09/11 03:44:18;;;;;;;19.08;9.65;;;21.50;99.90;;;;;;5025665;28;20464;-71
2023/09/11 03:46:44;;;;;;;20.45;9.18;;;21.50;99.90;;;;;;5008162;28;20037;-71
2023/09/11 03:49:09;;;;;;;15.00;9.13;;;21.50;99.90;;;;;;5020008;28;20564;-70
2023/09/11 03:51:35;;;;;;;20.42;9.55;;;21.50;99.90;;;;;;5021359;28;20400;-70
2023/09/11 03:54:06;;;;;;;24.00;10.27;;;21.40;99.90;;;;;;5008829;28;20080;-71
2023/09/11 03:56:31;;;;;;;17.50;9.55;;;21.40;99.90;;;;;;5016142;28;20393;-70
2023/09/11 03:58:57;;;;;;;16.05;8.95;;;21.40;99.90;;;;;;5024945;28;20034;-71
2023/09/11 04:01:22;;;;;;;15.73;9.57;;;21.30;99.90;;;;;;5020496;28;20097;-70
2023/09/11 04:03:48;;;;;;;21.20;10.38;;;21.30;99.90;;;;;;5002426;28;20036;-70
2023/09/11 04:06:13;;;;;;;18.00;9.20;;;21.30;99.90;;;;;;5007970;28;20041;-71
2023/09/11 04:08:39;;;;;;;15.45;9.18;;;21.20;99.90;;;;;;5003747;28;20041;-71
2023/09/11 04:11:04;;;;;;;17.77;9.13;;;21.30;99.90;;;;;;5013236;28;20037;-70
2023/09/11 04:13:30;;;;;;;16.50;8.90;;;21.20;99.90;;;;;;4995986;28;20037;-71
2023/09/11 04:15:55;;;;;;;18.00;9.82;;;21.20;99.90;;;;;;5022686;28;20366;-70
2023/09/11 04:18:21;;;;;;;16.15;8.95;;;21.10;99.90;;;;;;5018246;28;20375;-70
2023/09/11 04:20:47;;;;;;;20.90;8.40;;;21.20;99.90;;;;;;5027951;28;20033;-70
2023/09/11 04:23:12;;;;;;;19.65;8.88;;;21.20;99.90;;;;;;5022649;28;20066;-70
2023/09/11 04:25:38;;;;;;;17.15;9.13;;;21.20;99.90;;;;;;5004397;28;20029;-70
2023/09/11 04:28:04;;;;;;;20.88;9.13;;;21.20;99.90;;;;;;5016662;28;20042;-69
2023/09/11 04:30:29;;;;;;;17.52;9.25;;;21.20;99.90;;;;;;5004685;28;20060;-70
2023/09/11 04:32:55;;;;;;;17.08;8.48;;;21.20;99.90;;;;;;5017476;28;20494;-69
2023/09/11 04:35:23;;;;;;;14.85;7.95;;;21.20;99.90;;;;;;5033162;28;20042;-69
2023/09/11 04:37:48;;;;;;;15.07;8.02;;;21.20;99.90;;;;;;5021998;28;20057;-70
2023/09/11 04:40:14;;;;;;;13.77;8.23;;;21.20;99.90;;;;;;5018761;28;20112;-70
2023/09/11 04:42:41;;;;;;;14.35;7.93;;;21.20;99.90;;;;;;5022884;28;20029;-69
2023/09/11 04:45:07;;;;;;;12.93;6.88;;;21.20;99.90;;;;;;5021643;28;20460;-70
2023/09/11 04:47:34;;;;;;;11.45;7.10;;;21.20;99.90;;;;;;5022697;28;20038;-70
2023/09/11 04:50:00;;;;;;;16.80;7.38;;;21.20;99.90;;;;;;5007067;28;20026;-70
2023/09/11 04:52:25;;;;;;;11.35;5.97;;;21.20;99.90;;;;;;5019003;28;20396;-72
2023/09/11 04:54:51;;;;;;;11.82;5.40;;;21.20;99.90;;;;;;5004925;28;20022;-69
2023/09/11 04:57:16;;;;;;;13.13;6.07;;;21.20;99.90;;;;;;5020839;28;20124;-70
2023/09/11 04:59:42;;;;;;;16.50;5.85;;;21.20;99.90;;;;;;4997176;28;20041;-70
2023/09/11 05:02:09;;;;;;;14.38;5.70;;;21.20;99.90;;;;;;4998480;28;20431;-70
2023/09/11 05:04:35;;;;;;;12.35;5.60;;;21.20;99.90;;;;;;4997331;28;20034;-70
2023/09/11 05:07:01;;;;;;;10.63;5.63;;;21.20;99.90;;;;;;5017104;28;20033;-69
2023/09/11 05:09:26;;;;;;;11.05;5.85;;;21.20;99.90;;;;;;5006483;28;20120;-69
2023/09/11 05:11:52;;;;;;;13.35;5.88;;;21.30;99.90;;;;;;5021306;28;20030;-71
2023/09/11 05:14:17;;;;;;;13.73;5.95;;;21.20;99.90;;;;;;5018096;28;20061;-70
2023/09/11 05:16:43;;;;;;;12.45;5.07;;;21.30;99.90;;;;;;5017648;28;20029;-70
2023/09/11 05:19:09;;;;;;;10.15;5.53;;;21.20;99.90;;;;;;4999908;28;20034;-69
2023/09/11 05:21:36;;;;;;;17.60;5.15;;;21.20;99.90;;;;;;4993255;28;20083;-69
2023/09/11 05:24:03;;;;;;;9.75;4.97;;;21.20;99.90;;;;;;5006130;28;20124;-70
2023/09/11 05:26:29;;;;;;;13.52;5.53;;;21.20;99.90;;;;;;5013492;28;20432;-68
2023/09/11 05:28:54;;;;;;;8.50;4.35;;;21.20;99.90;;;;;;5017476;28;20034;-69
2023/09/11 05:31:20;;;;;;;8.82;4.45;;;21.20;99.90;;;;;;5024605;28;20525;-71
2023/09/11 05:33:45;;;;;;;9.68;5.10;;;21.20;99.90;;;;;;4998800;28;20046;-70
2023/09/11 05:36:11;;;;;;;11.55;5.50;;;21.30;99.90;;;;;;5019304;28;20086;-69
2023/09/11 05:38:37;;;;;;;10.18;4.68;;;21.30;99.90;;;;;;5424859;22;20041;-71
2023/09/11 05:41:03;;;;;;;14.35;5.55;;;21.30;99.90;;;;;;5034340;28;20030;-71
2023/09/11 05:43:28;;;;;;;8.80;4.35;;;21.30;99.90;;;;;;5033469;28;20404;-71
2023/09/11 05:45:55;;;;;;;10.40;5.47;;;21.30;99.90;;;;;;5038090;28;20559;-71
2023/09/11 05:48:20;;;;;;;8.10;5.00;;;21.30;99.90;;;;;;5028178;28;20515;-71
2023/09/11 05:50:46;;;;;;;12.07;5.50;;;21.30;99.90;;;;;;5038867;28;20033;-71
2023/09/11 05:53:11;;;;;;;14.25;5.13;;;21.30;99.90;;;;;;5033760;28;20550;-71
2023/09/11 05:55:38;;;;;;;8.73;4.68;;;21.20;99.90;;;;;;5029796;28;20156;-71
2023/09/11 05:58:03;;;;;;;10.52;5.55;;;21.20;99.90;;;;;;5040802;28;20660;-71
2023/09/11 06:00:29;;;;;;;11.98;4.82;;;21.10;99.90;;;;;;5033775;28;20041;-71
2023/09/11 06:02:55;;;;;;;11.73;5.68;;;21.10;99.90;;;;;;5034085;28;20048;-71
2023/09/11 06:05:21;;;;;;;10.30;5.60;;;21.10;99.90;;;;;;5035603;28;20048;-71
2023/09/11 06:07:47;;;;;;;8.27;5.13;;;21.10;99.90;;;;;;5030947;28;20044;-71
2023/09/11 06:10:13;;;;;;;12.00;5.00;;;21.10;99.90;;;;;;5035674;28;20025;-71
2023/09/11 06:12:39;;;;;;;12.05;5.22;;;21.10;99.90;;;;;;5028110;28;20033;-72
2023/09/11 06:15:05;;;;;;;9.20;4.90;;;21.10;99.90;;;;;;5027932;28;20477;-72
2023/09/11 06:17:34;;;;;;;9.82;4.65;;;21.00;99.90;;;;;;5023836;28;20044;-71
2023/09/11 06:20:00;;;;;;;13.25;5.22;;;21.10;99.90;;;;;;5035809;28;20547;-72
2023/09/11 06:22:26;;;;;;;10.70;5.32;;;21.10;99.90;;;;;;5036098;28;20037;-72
2023/09/11 06:24:52;;;;;;;9.45;4.53;;;21.20;99.90;;;;;;5035683;28;20033;-71
2023/09/11 06:27:18;;;;;;;13.63;6.20;;;21.30;99.90;;;;;;5029822;28;20064;-70
2023/09/11 06:29:44;;;;;;;12.38;5.20;;;21.30;99.90;;;;;;5028191;28;20524;-70
2023/09/11 06:32:12;;;;;;;18.80;4.93;;;21.30;99.90;;;;;;5022934;28;20033;-71
2023/09/11 06:34:38;;;;;;;7.93;4.65;;;21.40;99.90;;;;;;5024434;28;20040;-71
2023/09/11 06:37:06;;;;;;;15.00;5.00;;;21.50;99.90;;;;;;5029851;28;20037;-71
2023/09/11 06:39:31;;;;;;;8.95;4.90;;;21.60;99.90;;;;;;5029685;28;20073;-72
2023/09/11 06:41:57;;;;;;;11.77;5.28;;;21.60;99.90;;;;;;5029500;28;20064;-72
2023/09/11 06:44:23;;;;;;;17.63;5.00;;;21.60;99.90;;;;;;5029116;28;20480;-72
2023/09/11 06:46:48;;;;;;;12.50;4.72;;;21.60;99.90;;;;;;5026304;28;20048;-71
2023/09/11 06:49:14;;;;;;;12.57;5.38;;;21.60;99.90;;;;;;5028163;28;20053;-70
2023/09/11 06:51:39;;;;;;;11.98;5.07;;;21.70;99.90;;;;;;5026640;28;20520;-72
2023/09/11 06:54:09;;;;;;;16.75;5.40;;;21.70;99.90;;;;;;5027751;28;20041;-71
2023/09/11 06:56:34;;;;;;;11.40;4.72;;;21.70;99.90;;;;;;5030815;28;20045;-72
2023/09/11 06:59:00;;;;;;;11.27;5.15;;;21.80;99.90;;;;;;5034646;28;20408;-71
2023/09/11 07:01:25;;;;;;;25.42;5.57;;;21.90;99.90;;;;;;5031975;28;20065;-71
2023/09/11 07:03:51;;;;;;;8.55;5.18;;;21.90;99.90;;;;;;5030632;28;20053;-72
2023/09/11 07:06:16;;;;;;;11.10;5.10;;;22.00;99.90;;;;;;5031877;28;20045;-72
2023/09/11 07:08:42;;;;;;;13.65;5.78;;;22.10;99.90;;;;;;5029163;28;20409;-71
2023/09/11 07:11:07;;;;;;;15.10;5.93;;;22.20;99.90;;;;;;5031810;28;20450;-73
2023/09/11 07:13:33;;;;;;;10.43;5.20;;;22.30;99.90;;;;;;5030845;28;20535;-73
2023/09/11 07:16:00;;;;;;;8.52;5.65;;;22.30;99.90;;;;;;5031990;28;20496;-72
2023/09/11 07:18:26;;;;;;;11.60;5.45;;;22.40;99.90;;;;;;5032463;28;20721;-72
2023/09/11 07:20:52;;;;;;;9.40;5.28;;;22.40;99.90;;;;;;5028958;28;20112;-72
2023/09/11 07:23:23;;;;;;;9.50;4.97;;;22.50;99.90;;;;;;5037189;28;20060;-73
2023/09/11 07:25:51;;;;;;;12.55;6.13;;;22.50;99.90;;;;;;5031054;28;20034;-72
2023/09/11 07:28:17;;;;;;;9.88;5.10;;;22.60;99.90;;;;;;5028728;28;20132;-73
2023/09/11 07:30:44;;;;;;;11.57;5.25;;;22.70;99.90;;;;;;5033215;28;20036;-73
2023/09/11 07:33:10;;;;;;;11.88;5.88;;;22.80;99.90;;;;;;5037667;28;20029;-72
2023/09/11 07:35:35;;;;;;;11.93;6.13;;;22.80;99.90;;;;;;5042897;28;20041;-71
2023/09/11 07:38:01;;;;;;;11.77;5.28;;;22.70;99.90;;;;;;5031970;28;20480;-71
2023/09/11 07:40:27;;;;;;;13.98;6.30;;;22.70;99.90;;;;;;5032651;28;20048;-71
2023/09/11 07:42:54;;;;;;;9.95;5.68;;;22.80;99.90;;;;;;5030652;28;20121;-73
2023/09/11 07:45:23;;;;;;;10.52;6.10;;;22.80;99.90;;;;;;5033171;28;20033;-71
2023/09/11 07:47:48;;;;;;;14.20;6.35;;;22.80;99.90;;;;;;5029787;28;20037;-72
2023/09/11 07:50:14;;;;;;;11.80;6.53;;;22.70;99.90;;;;;;5032344;28;20116;-72
2023/09/11 07:52:40;;;;;;;11.27;5.95;;;22.70;99.90;;;;;;5030449;28;20045;-72
2023/09/11 07:55:06;;;;;;;15.70;6.85;;;22.70;99.90;;;;;;5030815;28;20078;-71
2023/09/11 07:57:33;;;;;;;16.75;6.93;;;22.80;99.90;;;;;;5031351;28;20554;-72
2023/09/11 08:00:04;;;;;;;13.00;6.53;;;22.90;99.90;;;;;;5030402;28;20037;-71
2023/09/11 08:02:30;;;;;;;16.48;6.65;;;23.00;99.90;;;;;;5027189;28;20047;-71
2023/09/11 08:04:55;;;;;;;13.43;6.45;;;23.00;99.90;;;;;;5032000;28;20148;-72
2023/09/11 08:07:21;;;;;;;17.05;6.28;;;22.90;99.90;;;;;;5035107;28;20132;-71
2023/09/11 08:09:47;;;;;;;18.38;6.65;;;23.00;99.90;;;;;;5032726;28;20030;-73
2023/09/11 08:12:12;;;;;;;13.38;6.50;;;23.10;99.90;;;;;;5034463;28;20061;-72
2023/09/11 08:14:38;;;;;;;14.23;6.38;;;23.20;99.90;;;;;;5030908;28;20026;-72
2023/09/11 08:17:03;;;;;;;12.13;6.45;;;23.20;99.90;;;;;;5030995;28;20038;-73
2023/09/11 08:19:29;;;;;;;12.38;7.25;;;23.30;99.90;;;;;;5032702;28;20037;-72
2023/09/11 08:21:55;;;;;;;15.52;6.40;;;23.40;99.90;;;;;;5037432;28;20108;-72
2023/09/11 08:24:22;;;;;;;14.38;6.35;;;23.50;99.90;;;;;;5032447;28;20443;-71
2023/09/11 08:26:48;;;;;;;14.25;7.57;;;23.60;99.90;;;;;;5029642;28;20033;-71
2023/09/11 08:29:15;;;;;;;13.90;6.95;;;23.60;99.90;;;;;;5031316;28;20033;-70
2023/09/11 08:31:41;;;;;;;19.67;6.57;;;23.70;99.90;;;;;;5029686;28;20041;-72
2023/09/11 08:34:06;;;;;;;14.73;6.45;;;23.80;99.90;;;;;;5032363;28;20065;-71
2023/09/11 08:36:32;;;;;;;16.10;7.53;;;24.00;99.90;;;;;;5033787;28;20106;-71
2023/09/11 08:38:58;;;;;;;11.95;7.40;;;24.00;99.90;;;;;;5032778;28;20052;-71
2023/09/11 08:41:25;;;;;;;15.50;6.85;;;24.00;99.90;;;;;;5040712;28;20041;-70
2023/09/11 08:43:51;;;;;;;13.85;7.05;;;24.10;99.90;;;;;;5037470;28;20132;-71
2023/09/11 08:46:17;;;;;;;12.63;6.47;;;24.20;99.90;;;;;;5041943;28;20040;-71
2023/09/11 08:48:52;;;;;;;11.95;7.50;;;24.30;99.90;;;;;;5040818;28;20044;-71
2023/09/11 08:51:22;;;;;;;12.38;6.20;;;24.40;99.90;;;;;;5031826;28;20033;-70
2023/09/11 08:53:51;;;;;;;10.35;6.63;;;24.50;99.90;;;;;;5031983;28;20064;-71
2023/09/11 08:56:17;;;;;;;13.68;6.60;;;24.50;99.90;;;;;;5033623;28;20053;-71
2023/09/11 08:58:43;;;;;;;13.73;5.55;;;24.60;99.90;;;;;;5037042;28;20068;-70
2023/09/11 09:01:09;;;;;;;8.45;4.65;;;24.70;99.90;;;;;;5029423;28;20033;-72
2023/09/11 09:03:37;;;;;;;17.42;5.00;;;24.80;99.90;;;;;;5031786;28;20040;-72
2023/09/11 09:06:04;;;;;;;13.10;4.32;;;24.90;99.90;;;;;;5032772;28;20029;-73
2023/09/11 09:08:31;;;;;;;16.95;4.88;;;25.00;99.90;;;;;;5033936;28;20045;-73
2023/09/11 09:10:58;;;;;;;9.05;4.00;;;25.10;99.90;;;;;;5036261;28;20039;-72
2023/09/11 09:13:25;;;;;;;9.38;4.15;;;25.20;99.90;;;;;;5034116;28;20033;-72
2023/09/11 09:15:51;;;;;;;6.50;3.58;;;25.40;99.90;;;;;;5034919;28;20037;-73
2023/09/11 09:18:17;;;;;;;10.45;4.00;;;25.40;99.90;;;;;;5037839;28;20403;-73
2023/09/11 09:20:42;;;;;;;14.15;4.35;;;25.40;99.90;;;;;;5030818;28;20504;-72
2023/09/11 09:23:08;;;;;;;7.78;3.85;;;25.40;99.90;;;;;;5026749;28;20033;-72
2023/09/11 09:25:33;;;;;;;10.50;4.70;;;25.50;99.90;;;;;;5032326;28;20045;-71
2023/09/11 09:28:00;;;;;;;7.78;4.13;;;25.50;99.90;;;;;;5032258;28;20101;-71
2023/09/11 09:30:32;;;;;;;10.02;4.05;;;25.60;99.90;;;;;;5037784;28;20675;-71
2023/09/11 09:33:01;;;;;;;11.25;5.15;;;25.60;99.90;;;;;;5024409;28;20150;-72
2023/09/11 09:35:33;;;;;;;8.52;3.90;;;25.80;99.90;;;;;;5036501;28;20062;-71
2023/09/11 09:38:00;;;;;;;11.23;4.22;;;25.80;99.90;;;;;;5029290;28;20385;-71
2023/09/11 09:40:35;;;;;;;6.63;4.22;;;25.90;99.90;;;;;;5029865;28;20033;-71
2023/09/11 09:43:22;;;;;;;10.85;4.70;;;26.00;99.90;;;;;;5040106;28;20043;-71
2023/09/11 09:45:48;;;;;;;16.55;5.15;;;26.00;99.90;;;;;;5036869;28;20047;-72
2023/09/11 09:48:19;;;;;;;8.93;5.28;;;26.10;99.90;;;;;;5032778;28;20029;-73
2023/09/11 09:50:53;;;;;;;10.02;4.90;;;26.20;99.90;;;;;;5036331;28;20049;-72
2023/09/11 09:53:28;;;;;;;10.70;4.78;;;26.20;99.90;;;;;;5032941;28;20049;-71
2023/09/11 09:55:56;;;;;;;6.95;4.30;;;26.30;99.90;;;;;;5031510;28;20033;-71
2023/09/11 09:58:28;;;;;;;7.70;4.28;;;26.40;99.90;;;;;;5039870;28;20053;-71
2023/09/11 10:00:58;;;;;;;12.00;5.47;;;26.40;99.90;;;;;;5033041;28;20033;-71
2023/09/11 10:03:23;;;;;;;10.55;4.75;;;26.40;99.90;;;;;;5037237;28;20060;-71
2023/09/11 10:05:49;;;;;;;13.60;4.47;;;26.50;99.90;;;;;;5032328;28;20081;-72
2023/09/11 10:08:15;;;;;;;10.45;4.65;;;26.50;99.90;;;;;;5035967;28;20060;-73
2023/09/11 10:10:41;;;;;;;13.65;5.07;;;26.60;99.90;;;;;;5033960;28;20084;-71
2023/09/11 10:13:10;;;;;;;11.98;5.80;;;26.70;99.90;;;;;;5034748;28;20029;-72
2023/09/11 10:15:37;;;;;;;8.15;4.72;;;26.70;99.90;;;;;;5036208;28;20037;-70
2023/09/11 10:18:04;;;;;;;6.55;3.70;;;26.80;99.90;;;;;;5037565;28;20080;-71
2023/09/11 10:20:30;;;;;;;8.95;4.45;;;26.90;99.90;;;;;;5036265;28;20041;-73
2023/09/11 10:22:58;;;;;;;7.45;3.63;;;26.90;99.90;;;;;;5032065;28;20030;-73
2023/09/11 10:25:26;;;;;;;8.48;4.05;;;27.00;99.90;;;;;;5021765;28;20169;-73
2023/09/11 10:28:02;;;;;;;14.75;3.63;;;27.00;99.90;;;;;;5025363;28;20076;-71
2023/09/11 10:30:36;;;;;;;7.45;3.75;;;27.10;99.90;;;;;;5024562;28;20038;-72
2023/09/11 10:33:08;;;;;;;7.47;3.58;;;27.20;99.90;;;;;;5030967;28;20034;-71
2023/09/11 10:35:38;;;;;;;6.28;2.72;;;27.20;99.90;;;;;;5028072;28;20052;-71
2023/09/11 10:38:05;;;;;;;6.60;2.28;;;27.20;99.90;;;;;;5030255;28;20128;-72
2023/09/11 10:40:32;;;;;;;5.18;2.67;;;27.20;99.90;;;;;;5028291;28;20080;-72
2023/09/11 10:42:58;;;;;;;4.15;1.90;;;27.30;99.90;;;;;;5013868;28;20485;-71
2023/09/11 10:45:32;;;;;;;5.20;1.90;;;27.20;99.90;;;;;;5010186;28;20069;-71
2023/09/11 10:47:58;;;;;;;2.72;1.58;;;27.20;99.90;;;;;;5031210;28;20469;-72
2023/09/11 10:50:45;;;;;;;5.78;2.75;;;27.20;99.90;;;;;;5012050;28;20113;-73
2023/09/11 10:53:11;;;;;;;7.47;2.45;;;27.20;99.90;;;;;;5011845;28;20030;-70
2023/09/11 10:55:37;;;;;;;5.47;2.25;;;27.30;99.90;;;;;;5006699;28;20184;-70
2023/09/11 10:58:05;;;;;;;5.47;1.40;;;27.20;99.90;;;;;;5009141;28;20030;-71
2023/09/11 11:00:38;;;;;;;6.72;2.03;;;27.20;99.90;;;;;;5010096;28;20038;-71
2023/09/11 11:03:05;;;;;;;4.75;1.67;;;27.30;99.90;;;;;;5011428;28;20054;-71
2023/09/11 11:05:32;;;;;;;3.40;1.40;;;27.30;99.90;;;;;;5006365;28;20113;-72
2023/09/11 11:07:58;;;;;;;10.00;2.38;;;27.20;99.90;;;;;;5010598;28;20064;-71
2023/09/11 11:10:25;;;;;;;3.50;1.33;;;27.30;99.90;;;;;;5011220;28;20473;-73
2023/09/11 11:13:05;;;;;;;4.15;1.80;;;27.30;99.90;;;;;;5010632;28;20041;-72
2023/09/11 11:15:30;;;;;;;4.72;1.83;;;27.20;99.90;;;;;;5007632;28;20121;-71
2023/09/11 11:18:26;;;;;;;4.65;1.92;;;27.20;99.90;;;;;;5010640;28;20697;-71
2023/09/11 11:21:02;;;;;;;3.78;1.85;;;27.20;99.90;;;;;;5007115;28;20061;-73
2023/09/11 11:23:30;;;;;;;4.72;1.70;;;27.20;99.90;;;;;;5008092;28;20079;-71
2023/09/11 11:26:03;;;;;;;4.13;1.58;;;27.30;99.90;;;;;;5010514;28;20853;-71
2023/09/11 11:28:39;;;;;;;5.28;2.15;;;27.40;99.90;;;;;;5010829;28;20045;-71
2023/09/11 11:31:07;;;;;;;4.97;1.80;;;27.40;99.90;;;;;;5011884;28;20025;-70
2023/09/11 11:33:36;;;;;;;6.10;2.05;;;27.30;99.90;;;;;;5011125;28;20784;-72
2023/09/11 11:36:02;;;;;;;4.20;2.20;;;27.20;99.90;;;;;;5011846;28;20037;-72
2023/09/11 11:38:28;;;;;;;7.80;2.33;;;27.20;99.90;;;;;;5013926;23;20398;-72
2023/09/11 11:40:54;;;;;;;3.25;1.40;;;27.20;99.90;;;;;;5013409;28;20192;-72
2023/09/11 11:43:22;;;;;;;7.78;1.77;;;27.20;99.90;;;;;;4980565;28;20040;-71
2023/09/11 11:45:48;;;;;;;5.72;2.05;;;27.20;99.90;;;;;;4994548;28;20037;-70
2023/09/11 11:48:14;;;;;;;4.68;1.80;;;27.20;99.90;;;;;;5006702;28;20037;-72
2023/09/11 11:50:42;;;;;;;4.90;2.53;;;27.30;99.90;;;;;;4986026;28;20042;-71
2023/09/11 11:53:13;;;;;;;8.70;2.45;;;27.30;99.90;;;;;;5002076;28;20026;-71
2023/09/11 11:55:39;;;;;;;5.40;2.15;;;27.20;99.90;;;;;;4988322;28;20652;-72
2023/09/11 11:58:08;;;;;;;6.68;2.28;;;27.30;99.90;;;;;;5022476;28;20719;-72
2023/09/11 12:00:35;;;;;;;6.45;2.33;;;27.30;99.90;;;;;;5037428;28;20059;-72
2023/09/11 12:03:05;;;;;;;6.05;2.53;;;27.20;99.90;;;;;;5039670;28;20118;-70
2023/09/11 12:05:30;;;;;;;;;;;27.30;99.90;;;;;;5022254;28;20754;-71
2023/09/11 12:07:56;;;;;;;10.50;2.58;;;27.30;99.90;;;;;;5040068;28;19960;-71
2023/09/11 12:10:22;;;;;;;7.25;2.92;;;27.20;99.90;;;;;;5028599;28;20504;-70
2023/09/11 12:12:48;;;;;;;5.70;3.03;;;27.20;99.90;;;;;;5036439;28;20025;-70
2023/09/11 12:15:15;;;;;;;10.68;3.85;;;27.20;99.90;;;;;;5034640;28;20148;-71
2023/09/11 12:17:49;;;;;;;6.60;2.75;;;27.10;99.90;;;;;;5043786;28;20048;-70
2023/09/11 12:20:18;;;;;;;9.95;3.42;;;27.10;99.90;;;;;;5041240;28;20041;-70
2023/09/11 12:22:44;;;;;;;9.27;2.85;;;27.00;99.90;;;;;;5041617;28;20090;-71
2023/09/11 12:25:11;;;;;;;7.53;2.85;;;26.90;99.90;;;;;;5025549;28;20037;-70
2023/09/11 12:27:37;;;;;;;10.43;3.83;;;26.90;99.90;;;;;;5041722;28;20041;-70
2023/09/11 12:30:05;;;;;;;9.63;4.20;;;26.90;99.90;;;;;;5020298;28;20037;-71
2023/09/11 12:32:32;;;;;;;8.77;4.18;;;26.90;99.90;;;;;;5036702;28;20037;-70
2023/09/11 12:34:58;;;;;;;10.43;3.50;;;26.70;99.90;;;;;;5040660;28;20103;-70
2023/09/11 12:37:24;;;;;;;14.10;3.90;;;26.80;99.90;;;;;;5021247;28;20041;-71
2023/09/11 12:39:50;;;;;;;8.68;3.22;;;26.80;99.90;;;;;;5035946;28;20043;-70